createdAt,value
2024-01-16T00:01:51.085Z,96574.00
2024-01-16T00:04:17.975Z,96577.00
2024-01-16T00:06:48.110Z,96572.00
2024-01-16T00:09:15.474Z,96564.00
2024-01-16T00:11:43.985Z,96567.00
2024-01-16T00:14:11.636Z,96567.00
2024-01-16T00:16:49.161Z,96579.00
2024-01-16T00:19:16.216Z,96579.00
2024-01-16T00:21:46.682Z,96584.00
2024-01-16T00:24:14.593Z,96567.00
2024-01-16T00:26:41.567Z,96577.00
2024-01-16T00:29:10.088Z,96588.00
2024-01-16T00:31:37.009Z,96588.00
2024-01-16T00:34:04.464Z,96592.00
2024-01-16T00:36:31.763Z,96605.00
2024-01-16T00:38:58.644Z,96600.00
2024-01-16T00:41:25.934Z,96604.00
2024-01-16T00:43:53.147Z,96607.00
2024-01-16T00:46:21.982Z,96627.00
2024-01-16T00:48:49.327Z,96626.00
2024-01-16T00:51:16.475Z,96626.00
2024-01-16T00:53:44.361Z,96622.00
2024-01-16T00:56:12.040Z,96630.00
2024-01-16T00:58:39.431Z,96615.00
2024-01-16T01:01:06.663Z,96634.00
2024-01-16T01:03:33.850Z,96626.00
2024-01-16T01:06:02.412Z,96625.00
2024-01-16T01:08:29.545Z,96640.00
2024-01-16T01:10:56.558Z,96634.00
2024-01-16T01:13:23.727Z,96640.00
2024-01-16T01:15:50.821Z,96645.00
2024-01-16T01:18:17.830Z,96649.00
2024-01-16T01:20:44.994Z,96649.00
2024-01-16T01:23:12.076Z,96641.00
2024-01-16T01:25:39.449Z,96618.00
2024-01-16T01:28:06.645Z,96629.00
2024-01-16T01:30:33.788Z,96644.00
2024-01-16T01:33:00.987Z,96633.00
2024-01-16T01:35:28.767Z,96615.00
2024-01-16T01:37:55.713Z,96624.00
2024-01-16T01:40:22.633Z,96625.00
2024-01-16T01:42:49.722Z,96648.00
2024-01-16T01:45:16.893Z,96653.00
2024-01-16T01:47:44.443Z,96656.00
2024-01-16T01:50:12.107Z,96650.00
2024-01-16T01:52:42.038Z,96652.00
2024-01-16T01:55:15.274Z,96657.00
2024-01-16T01:57:44.133Z,96653.00
2024-01-16T02:00:12.178Z,96673.00
2024-01-16T02:02:43.790Z,96656.00
2024-01-16T02:05:11.645Z,96658.00
2024-01-16T02:07:39.952Z,96652.00
2024-01-16T02:10:07.512Z,96670.00
2024-01-16T02:12:34.845Z,96657.00
2024-01-16T02:15:01.724Z,96661.00
2024-01-16T02:17:28.923Z,96651.00
2024-01-16T02:19:55.823Z,96672.00
2024-01-16T02:22:27.654Z,96665.00
2024-01-16T02:24:55.252Z,96665.00
2024-01-16T02:27:22.073Z,96667.00
2024-01-16T02:29:49.000Z,96686.00
2024-01-16T02:32:17.246Z,96682.00
2024-01-16T02:34:44.784Z,96677.00
2024-01-16T02:37:11.698Z,96677.00
2024-01-16T02:39:38.670Z,96684.00
2024-01-16T02:42:06.012Z,96687.00
2024-01-16T02:44:33.145Z,96674.00
2024-01-16T02:47:00.270Z,96681.00
2024-01-16T02:49:27.556Z,96689.00
2024-01-16T02:51:55.919Z,96681.00
2024-01-16T02:54:23.493Z,96683.00
2024-01-16T02:56:50.730Z,96681.00
2024-01-16T02:59:17.982Z,96671.00
2024-01-16T03:01:44.995Z,96699.00
2024-01-16T03:04:12.525Z,96694.00
2024-01-16T03:06:39.657Z,96679.00
2024-01-16T03:09:07.621Z,96668.00
2024-01-16T03:11:34.661Z,96691.00
2024-01-16T03:14:01.588Z,96689.00
2024-01-16T03:16:29.297Z,96685.00
2024-01-16T03:18:56.557Z,96678.00
2024-01-16T03:21:23.511Z,96691.00
2024-01-16T03:23:51.228Z,96698.00
2024-01-16T03:26:18.417Z,96680.00
2024-01-16T03:28:46.242Z,96690.00
2024-01-16T03:31:17.587Z,96675.00
2024-01-16T03:33:45.171Z,96680.00
2024-01-16T03:36:13.916Z,96677.00
2024-01-16T03:38:41.410Z,96670.00
2024-01-16T03:41:08.939Z,96682.00
2024-01-16T03:43:36.486Z,96675.00
2024-01-16T03:46:04.215Z,96668.00
2024-01-16T03:48:31.319Z,96671.00
2024-01-16T03:50:58.489Z,96661.00
2024-01-16T03:53:25.692Z,96676.00
2024-01-16T03:55:53.069Z,96667.00
2024-01-16T03:58:20.260Z,96666.00
2024-01-16T04:00:48.320Z,96685.00
2024-01-16T04:03:15.136Z,96679.00
2024-01-16T04:05:42.087Z,96665.00
2024-01-16T04:08:09.141Z,96674.00
2024-01-16T04:10:36.473Z,96662.00
2024-01-16T04:13:04.219Z,96655.00
2024-01-16T04:15:31.235Z,96647.00
2024-01-16T04:17:58.298Z,96664.00
2024-01-16T04:20:25.329Z,96665.00
2024-01-16T04:22:52.380Z,96666.00
2024-01-16T04:25:19.246Z,96670.00
2024-01-16T04:27:46.441Z,96660.00
2024-01-16T04:30:14.008Z,96678.00
2024-01-16T04:32:41.029Z,96666.00
2024-01-16T04:35:08.825Z,96655.00
2024-01-16T04:37:35.858Z,96658.00
2024-01-16T04:40:02.983Z,96649.00
2024-01-16T04:42:30.281Z,96667.00
2024-01-16T04:44:57.251Z,96658.00
2024-01-16T04:47:24.330Z,96673.00
2024-01-16T04:49:51.241Z,96669.00
2024-01-16T04:52:18.378Z,96663.00
2024-01-16T04:54:46.743Z,96680.00
2024-01-16T04:57:13.850Z,96683.00
2024-01-16T04:59:40.817Z,96681.00
2024-01-16T05:02:07.786Z,96676.00
2024-01-16T05:04:39.210Z,96686.00
2024-01-16T05:07:06.144Z,96674.00
2024-01-16T05:09:33.412Z,96674.00
2024-01-16T05:12:00.300Z,96663.00
2024-01-16T05:14:27.213Z,96670.00
2024-01-16T05:16:54.123Z,96678.00
2024-01-16T05:19:21.246Z,96677.00
2024-01-16T05:21:48.108Z,96681.00
2024-01-16T05:24:14.931Z,96675.00
2024-01-16T05:26:41.870Z,96690.00
2024-01-16T05:29:09.655Z,96682.00
2024-01-16T05:31:44.341Z,96683.00
2024-01-16T05:34:12.014Z,96669.00
2024-01-16T05:36:39.070Z,96674.00
2024-01-16T05:39:06.258Z,96679.00
2024-01-16T05:41:36.693Z,96678.00
2024-01-16T05:44:04.625Z,96684.00
2024-01-16T05:46:34.636Z,96662.00
2024-01-16T05:49:01.767Z,96657.00
2024-01-16T05:51:30.629Z,96666.00
2024-01-16T05:53:58.441Z,96647.00
2024-01-16T05:56:25.411Z,96658.00
2024-01-16T05:58:53.206Z,96662.00
2024-01-16T06:01:20.341Z,96652.00
2024-01-16T06:03:49.715Z,96665.00
2024-01-16T06:06:17.247Z,96664.00
2024-01-16T06:08:44.381Z,96648.00
2024-01-16T06:11:14.225Z,96653.00
2024-01-16T06:13:41.678Z,96659.00
2024-01-16T06:16:09.576Z,96663.00
2024-01-16T06:18:37.005Z,96674.00
2024-01-16T06:21:05.199Z,96659.00
2024-01-16T06:23:32.343Z,96663.00
2024-01-16T06:26:01.201Z,96663.00
2024-01-16T06:28:28.315Z,96651.00
2024-01-16T06:30:55.195Z,96651.00
2024-01-16T06:33:22.172Z,96669.00
2024-01-16T06:35:52.008Z,96650.00
2024-01-16T06:38:20.799Z,96655.00
2024-01-16T06:40:47.695Z,96667.00
2024-01-16T06:43:16.744Z,96667.00
2024-01-16T06:45:44.351Z,96671.00
2024-01-16T06:48:11.964Z,96664.00
2024-01-16T06:50:39.099Z,96676.00
2024-01-16T06:53:06.005Z,96666.00
2024-01-16T06:55:32.834Z,96662.00
2024-01-16T06:57:59.676Z,96675.00
2024-01-16T07:00:27.969Z,96649.00
2024-01-16T07:02:55.779Z,96656.00
2024-01-16T07:05:22.938Z,96674.00
2024-01-16T07:07:49.966Z,96669.00
2024-01-16T07:10:19.887Z,96674.00
2024-01-16T07:12:46.959Z,96665.00
2024-01-16T07:15:14.478Z,96671.00
2024-01-16T07:17:41.953Z,96678.00
2024-01-16T07:20:09.704Z,96670.00
2024-01-16T07:22:40.574Z,96682.00
2024-01-16T07:25:08.594Z,96681.00
2024-01-16T07:27:35.740Z,96686.00
2024-01-16T07:30:05.647Z,96680.00
2024-01-16T07:32:33.601Z,96679.00
2024-01-16T07:35:00.907Z,96702.00
2024-01-16T07:37:27.755Z,96691.00
2024-01-16T07:39:54.593Z,96685.00
2024-01-16T07:42:21.667Z,96699.00
2024-01-16T07:44:48.564Z,96696.00
2024-01-16T07:47:15.429Z,96697.00
2024-01-16T07:49:43.198Z,96688.00
2024-01-16T07:52:10.208Z,96702.00
2024-01-16T07:54:37.108Z,96708.00
2024-01-16T07:57:04.546Z,96701.00
2024-01-16T07:59:31.638Z,96705.00
2024-01-16T08:01:58.486Z,96708.00
2024-01-16T08:04:25.527Z,96707.00
2024-01-16T08:06:54.123Z,96711.00
2024-01-16T08:09:21.280Z,96704.00
2024-01-16T08:11:48.575Z,96701.00
2024-01-16T08:14:15.618Z,96711.00
2024-01-16T08:16:42.782Z,96707.00
2024-01-16T08:19:09.799Z,96718.00
2024-01-16T08:21:37.287Z,96719.00
2024-01-16T08:24:04.324Z,96701.00
2024-01-16T08:26:31.227Z,96709.00
2024-01-16T08:28:58.973Z,96707.00
2024-01-16T08:31:25.801Z,96722.00
2024-01-16T08:33:54.490Z,96712.00
2024-01-16T08:36:21.738Z,96719.00
2024-01-16T08:38:48.652Z,96726.00
2024-01-16T08:41:15.652Z,96714.00
2024-01-16T08:43:42.652Z,96723.00
2024-01-16T08:46:09.604Z,96714.00
2024-01-16T08:48:36.639Z,96732.00
2024-01-16T08:51:09.253Z,96710.00
2024-01-16T08:53:36.399Z,96730.00
2024-01-16T08:56:03.824Z,96736.00
2024-01-16T08:58:31.676Z,96725.00
2024-01-16T09:00:58.532Z,96735.00
2024-01-16T09:03:25.658Z,96733.00
2024-01-16T09:05:53.003Z,96725.00
2024-01-16T09:08:19.917Z,96727.00
2024-01-16T09:10:46.773Z,96723.00
2024-01-16T09:13:13.913Z,96745.00
2024-01-16T09:15:41.069Z,96730.00
2024-01-16T09:18:08.134Z,96742.00
2024-01-16T09:20:35.776Z,96751.00
2024-01-16T09:23:03.439Z,96749.00
2024-01-16T09:25:30.922Z,96752.00
2024-01-16T09:27:58.005Z,96733.00
2024-01-16T09:30:24.889Z,96739.00
2024-01-16T09:32:51.894Z,96751.00
2024-01-16T09:35:19.190Z,96727.00
2024-01-16T09:37:46.231Z,96739.00
2024-01-16T09:40:14.718Z,96755.00
2024-01-16T09:42:44.185Z,96740.00
2024-01-16T09:45:11.702Z,96741.00
2024-01-16T09:47:40.055Z,96733.00
2024-01-16T09:50:07.591Z,96741.00
2024-01-16T09:52:35.486Z,96722.00
2024-01-16T09:55:02.607Z,96747.00
2024-01-16T09:57:31.658Z,96748.00
2024-01-16T10:00:03.182Z,96740.00
2024-01-16T10:02:34.521Z,96751.00
2024-01-16T10:05:01.641Z,96731.00
2024-01-16T10:07:31.217Z,96743.00
2024-01-16T10:09:59.016Z,96739.00
2024-01-16T10:12:26.773Z,96745.00
2024-01-16T10:14:56.470Z,96749.00
2024-01-16T10:17:36.344Z,96753.00
2024-01-16T10:20:06.079Z,96745.00
2024-01-16T10:22:33.769Z,96752.00
2024-01-16T10:25:09.971Z,96749.00
2024-01-16T10:27:40.365Z,96734.00
2024-01-16T10:30:08.512Z,96732.00
2024-01-16T10:32:44.497Z,96732.00
2024-01-16T10:35:14.676Z,96717.00
2024-01-16T10:37:45.678Z,96726.00
2024-01-16T10:40:32.157Z,96720.00
2024-01-16T10:43:06.645Z,96713.00
2024-01-16T10:45:36.389Z,96708.00
2024-01-16T10:48:09.386Z,96712.00
2024-01-16T10:50:41.277Z,96706.00
2024-01-16T10:53:09.926Z,96710.00
2024-01-16T10:55:52.285Z,96698.00
2024-01-16T10:58:25.050Z,96710.00
2024-01-16T11:00:54.704Z,96701.00
2024-01-16T11:03:44.583Z,96687.00
2024-01-16T11:06:13.009Z,96688.00
2024-01-16T11:08:41.389Z,96679.00
2024-01-16T11:11:09.394Z,96677.00
2024-01-16T11:13:37.893Z,96679.00
2024-01-16T11:16:06.466Z,96670.00
2024-01-16T11:18:36.437Z,96698.00
2024-01-16T11:21:14.554Z,96692.00
2024-01-16T11:23:46.248Z,96703.00
2024-01-16T11:26:35.241Z,96678.00
2024-01-16T11:29:28.241Z,96672.00
2024-01-16T11:32:09.152Z,96674.00
2024-01-16T11:34:44.021Z,96679.00
2024-01-16T11:37:15.229Z,96673.00
2024-01-16T11:39:42.330Z,96663.00
2024-01-16T11:42:10.403Z,96667.00
2024-01-16T11:44:42.771Z,96672.00
2024-01-16T11:47:15.950Z,96667.00
2024-01-16T11:49:42.783Z,96671.00
2024-01-16T11:52:12.153Z,96670.00
2024-01-16T11:54:39.629Z,96668.00
2024-01-16T11:57:48.586Z,96657.00
2024-01-16T12:00:29.714Z,96668.00
2024-01-16T12:03:05.210Z,96682.00
2024-01-16T12:05:33.032Z,96673.00
2024-01-16T12:07:59.964Z,96669.00
2024-01-16T12:10:27.034Z,96681.00
2024-01-16T12:13:03.147Z,96678.00
2024-01-16T12:15:32.834Z,96665.00
2024-01-16T12:18:02.645Z,96670.00
2024-01-16T12:20:35.464Z,96665.00
2024-01-16T12:23:05.621Z,96665.00
2024-01-16T12:26:00.605Z,96655.00
2024-01-16T12:30:52.841Z,96639.00
2024-01-16T12:33:23.797Z,96636.00
2024-01-16T12:35:51.155Z,96642.00
2024-01-16T12:38:18.615Z,96636.00
2024-01-16T12:40:52.662Z,96616.00
2024-01-16T12:43:20.100Z,96604.00
2024-01-16T12:45:47.310Z,96617.00
2024-01-16T12:48:14.859Z,96602.00
2024-01-16T12:50:42.047Z,96603.00
2024-01-16T12:53:13.530Z,96604.00
2024-01-16T12:55:41.710Z,96610.00
2024-01-16T12:58:28.198Z,96597.00
2024-01-16T13:00:57.109Z,96589.00
2024-01-16T13:03:29.163Z,96601.00
2024-01-16T13:06:01.877Z,96596.00
2024-01-16T13:08:29.940Z,96580.00
2024-01-16T13:11:09.014Z,96590.00
2024-01-16T13:13:37.290Z,96590.00
2024-01-16T13:16:08.734Z,96595.00
2024-01-16T13:18:35.905Z,96593.00
2024-01-16T13:21:03.569Z,96591.00
2024-01-16T13:23:30.435Z,96599.00
2024-01-16T13:26:00.625Z,96583.00
2024-01-16T13:28:28.261Z,96604.00
2024-01-16T13:30:56.130Z,96588.00
2024-01-16T13:33:28.300Z,96588.00
2024-01-16T13:35:56.137Z,96589.00
2024-01-16T13:38:23.942Z,96586.00
2024-01-16T13:40:51.572Z,96588.00
2024-01-16T13:43:18.502Z,96584.00
2024-01-16T13:45:45.489Z,96584.00
2024-01-16T13:48:12.487Z,96587.00
2024-01-16T13:50:39.529Z,96572.00
2024-01-16T13:53:06.497Z,96569.00
2024-01-16T13:55:33.380Z,96558.00
2024-01-16T13:58:00.707Z,96568.00
2024-01-16T14:00:27.861Z,96564.00
2024-01-16T14:02:55.948Z,96567.00
2024-01-16T14:05:23.296Z,96572.00
2024-01-16T14:07:53.172Z,96571.00
2024-01-16T14:10:22.184Z,96575.00
2024-01-16T14:12:52.178Z,96560.00
2024-01-16T14:15:25.638Z,96558.00
2024-01-16T14:17:56.067Z,96553.00
2024-01-16T14:20:27.852Z,96560.00
2024-01-16T14:22:56.371Z,96567.00
2024-01-16T14:25:23.422Z,96559.00
2024-01-16T14:27:59.572Z,96560.00
2024-01-16T14:30:27.802Z,96564.00
2024-01-16T14:32:56.285Z,96559.00
2024-01-16T14:35:24.973Z,96564.00
2024-01-16T14:37:52.933Z,96554.00
2024-01-16T14:40:26.717Z,96569.00
2024-01-16T14:42:56.788Z,96554.00
2024-01-16T14:45:24.690Z,96564.00
2024-01-16T14:47:52.521Z,96560.00
2024-01-16T14:50:19.718Z,96565.00
2024-01-16T14:52:51.010Z,96564.00
2024-01-16T14:55:21.486Z,96570.00
2024-01-16T14:57:53.206Z,96568.00
2024-01-16T15:00:28.004Z,96554.00
2024-01-16T15:02:55.356Z,96558.00
2024-01-16T15:05:23.725Z,96560.00
2024-01-16T15:07:54.379Z,96555.00
2024-01-16T15:10:22.082Z,96568.00
2024-01-16T15:12:49.250Z,96552.00
2024-01-16T15:15:16.902Z,96548.00
2024-01-16T15:17:46.045Z,96551.00
2024-01-16T15:20:13.637Z,96538.00
2024-01-16T15:22:47.067Z,96545.00
2024-01-16T15:25:16.716Z,96551.00
2024-01-16T15:27:45.322Z,96541.00
2024-01-16T15:30:14.795Z,96543.00
2024-01-16T15:32:42.088Z,96530.00
2024-01-16T15:35:09.258Z,96551.00
2024-01-16T15:37:36.843Z,96545.00
2024-01-16T15:40:07.684Z,96562.00
2024-01-16T15:42:37.522Z,96556.00
2024-01-16T15:45:05.656Z,96568.00
2024-01-16T15:47:33.064Z,96544.00
2024-01-16T15:50:00.799Z,96553.00
2024-01-16T15:52:28.574Z,96560.00
2024-01-16T15:54:56.567Z,96565.00
2024-01-16T15:57:24.002Z,96554.00
2024-01-16T15:59:50.921Z,96557.00
2024-01-16T16:02:17.830Z,96546.00
2024-01-16T16:04:44.890Z,96552.00
2024-01-16T16:07:11.958Z,96563.00
2024-01-16T16:09:39.741Z,96562.00
2024-01-16T16:12:08.125Z,96553.00
2024-01-16T16:14:40.737Z,96557.00
2024-01-16T16:17:09.739Z,96574.00
2024-01-16T16:19:37.229Z,96565.00
2024-01-16T16:22:05.619Z,96542.00
2024-01-16T16:24:32.781Z,96560.00
2024-01-16T16:27:00.945Z,96563.00
2024-01-16T16:29:28.366Z,96565.00
2024-01-16T16:31:55.931Z,96573.00
2024-01-16T16:34:23.193Z,96580.00
2024-01-16T16:36:50.865Z,96584.00
2024-01-16T16:39:18.964Z,96584.00
2024-01-16T16:41:45.880Z,96589.00
2024-01-16T16:44:12.763Z,96591.00
2024-01-16T16:46:39.806Z,96596.00
2024-01-16T16:49:06.915Z,96607.00
2024-01-16T16:51:38.720Z,96594.00
2024-01-16T16:54:05.890Z,96586.00
2024-01-16T16:56:33.390Z,96586.00
2024-01-16T16:59:00.729Z,96595.00
2024-01-16T17:01:27.940Z,96609.00
2024-01-16T17:03:54.927Z,96583.00
2024-01-16T17:06:22.275Z,96583.00
2024-01-16T17:08:49.265Z,96578.00
2024-01-16T17:11:16.335Z,96573.00
2024-01-16T17:13:47.639Z,96579.00
2024-01-16T17:16:18.300Z,96594.00
2024-01-16T17:18:45.472Z,96573.00
2024-01-16T17:21:14.206Z,96567.00
2024-01-16T17:23:41.372Z,96576.00
2024-01-16T17:26:08.373Z,96572.00
2024-01-16T17:28:35.438Z,96568.00
2024-01-16T17:31:03.107Z,96575.00
2024-01-16T17:33:30.860Z,96560.00
2024-01-16T17:36:04.360Z,96559.00
2024-01-16T17:38:32.041Z,96560.00
2024-01-16T17:41:00.148Z,96566.00
2024-01-16T17:43:27.390Z,96550.00
2024-01-16T17:45:54.456Z,96563.00
2024-01-16T17:48:21.584Z,96536.00
2024-01-16T17:50:49.023Z,96534.00
2024-01-16T17:53:16.131Z,96553.00
2024-01-16T17:55:43.545Z,96534.00
2024-01-16T17:58:12.310Z,96536.00
2024-01-16T18:00:39.607Z,96540.00
2024-01-16T18:03:15.736Z,96540.00
2024-01-16T18:05:50.584Z,96533.00
2024-01-16T18:08:18.285Z,96531.00
2024-01-16T18:10:45.513Z,96518.00
2024-01-16T18:13:12.320Z,96528.00
2024-01-16T18:15:39.196Z,96518.00
2024-01-16T18:18:08.480Z,96520.00
2024-01-16T18:20:36.159Z,96514.00
2024-01-16T18:23:07.421Z,96518.00
2024-01-16T18:25:35.333Z,96526.00
2024-01-16T18:28:02.292Z,96510.00
2024-01-16T18:30:29.257Z,96519.00
2024-01-16T18:32:57.845Z,96504.00
2024-01-16T18:35:25.079Z,96479.00
2024-01-16T18:37:56.385Z,96515.00
2024-01-16T18:40:24.859Z,96509.00
2024-01-16T18:42:51.756Z,96518.00
2024-01-16T18:45:19.396Z,96516.00
2024-01-16T18:47:49.238Z,96528.00
2024-01-16T18:50:18.568Z,96503.00
2024-01-16T18:52:46.722Z,96513.00
2024-01-16T18:55:14.672Z,96515.00
2024-01-16T18:57:43.741Z,96510.00
2024-01-16T19:00:14.535Z,96495.00
2024-01-16T19:02:46.893Z,96487.00
2024-01-16T19:05:14.939Z,96470.00
2024-01-16T19:07:44.187Z,96489.00
2024-01-16T19:10:13.755Z,96454.00
2024-01-16T19:12:47.261Z,96476.00
2024-01-16T19:15:20.627Z,96476.00
2024-01-16T19:17:49.756Z,96486.00
2024-01-16T19:20:17.872Z,96461.00
2024-01-16T19:22:45.967Z,96464.00
2024-01-16T19:25:15.984Z,96480.00
2024-01-16T19:27:45.518Z,96486.00
2024-01-16T19:30:15.329Z,96483.00
2024-01-16T19:32:46.653Z,96471.00
2024-01-16T19:35:15.126Z,96478.00
2024-01-16T19:37:42.586Z,96459.00
2024-01-16T19:40:17.778Z,96457.00
2024-01-16T19:42:45.125Z,96463.00
2024-01-16T19:45:14.449Z,96471.00
2024-01-16T19:47:43.053Z,96466.00
2024-01-16T19:50:21.983Z,96464.00
2024-01-16T19:52:54.466Z,96465.00
2024-01-16T19:55:23.130Z,96452.00
2024-01-16T19:57:54.634Z,96458.00
2024-01-16T20:00:21.853Z,96461.00
2024-01-16T20:02:50.274Z,96444.00
2024-01-16T20:05:17.920Z,96445.00
2024-01-16T20:07:49.115Z,96454.00
2024-01-16T20:10:17.149Z,96434.00
2024-01-16T20:12:51.308Z,96439.00
2024-01-16T20:15:21.807Z,96424.00
2024-01-16T20:17:51.068Z,96418.00
2024-01-16T20:20:18.224Z,96407.00
2024-01-16T20:22:45.815Z,96415.00
2024-01-16T20:25:13.735Z,96400.00
2024-01-16T20:27:44.452Z,96412.00
2024-01-16T20:30:13.767Z,96401.00
2024-01-16T20:32:42.408Z,96388.00
2024-01-16T20:35:11.381Z,96378.00
2024-01-16T20:37:38.332Z,96380.00
2024-01-16T20:40:06.273Z,96392.00
2024-01-16T20:42:33.630Z,96372.00
2024-01-16T20:45:00.713Z,96379.00
2024-01-16T20:47:28.901Z,96374.00
2024-01-16T20:49:56.148Z,96370.00
2024-01-16T20:52:23.243Z,96393.00
2024-01-16T20:54:50.213Z,96394.00
2024-01-16T20:57:17.293Z,96395.00
2024-01-16T20:59:44.604Z,96399.00
2024-01-16T21:02:11.629Z,96389.00
2024-01-16T21:04:38.882Z,96394.00
2024-01-16T21:07:06.235Z,96389.00
2024-01-16T21:09:33.897Z,96389.00
2024-01-16T21:12:02.820Z,96394.00
2024-01-16T21:14:31.645Z,96399.00
2024-01-16T21:16:58.784Z,96401.00
2024-01-16T21:19:25.706Z,96391.00
2024-01-16T21:21:55.758Z,96400.00
2024-01-16T21:24:22.811Z,96389.00
2024-01-16T21:26:50.078Z,96392.00
2024-01-16T21:29:17.397Z,96390.00
2024-01-16T21:31:49.578Z,96368.00
2024-01-16T21:34:22.577Z,96378.00
2024-01-16T21:36:53.781Z,96377.00
2024-01-16T21:39:21.752Z,96378.00
2024-01-16T21:41:49.043Z,96365.00
2024-01-16T21:44:16.087Z,96364.00
2024-01-16T21:46:43.727Z,96358.00
2024-01-16T21:49:11.911Z,96356.00
2024-01-16T21:51:39.202Z,96352.00
2024-01-16T21:54:06.870Z,96369.00
2024-01-16T21:56:34.359Z,96351.00
2024-01-16T21:59:01.613Z,96330.00
2024-01-16T22:01:29.828Z,96347.00
2024-01-16T22:03:57.540Z,96340.00
2024-01-16T22:06:25.266Z,96313.00
2024-01-16T22:08:54.050Z,96336.00
2024-01-16T22:11:21.125Z,96337.00
2024-01-16T22:13:48.036Z,96330.00
2024-01-16T22:16:15.149Z,96326.00
2024-01-16T22:18:47.214Z,96326.00
2024-01-16T22:21:16.104Z,96299.00
2024-01-16T22:23:43.142Z,96310.00
2024-01-16T22:26:10.021Z,96305.00
2024-01-16T22:28:38.743Z,96297.00
2024-01-16T22:31:06.016Z,96296.00
2024-01-16T22:33:33.112Z,96284.00
2024-01-16T22:36:01.951Z,96282.00
2024-01-16T22:38:28.989Z,96292.00
2024-01-16T22:40:57.222Z,96278.00
2024-01-16T22:43:24.111Z,96275.00
2024-01-16T22:45:52.633Z,96252.00
2024-01-16T22:48:19.642Z,96271.00
2024-01-16T22:50:50.424Z,96268.00
2024-01-16T22:53:17.808Z,96263.00
2024-01-16T22:55:45.115Z,96252.00
2024-01-16T22:58:12.701Z,96274.00
2024-01-16T23:00:40.442Z,96250.00
2024-01-16T23:03:10.763Z,96245.00
2024-01-16T23:05:38.871Z,96248.00
2024-01-16T23:08:10.585Z,96248.00
2024-01-16T23:10:38.448Z,96248.00
2024-01-16T23:13:05.583Z,96248.00
2024-01-16T23:15:32.461Z,96240.00
2024-01-16T23:17:59.462Z,96246.00
2024-01-16T23:20:28.567Z,96214.00
2024-01-16T23:22:56.591Z,96228.00
2024-01-16T23:25:23.444Z,96210.00
2024-01-16T23:27:50.742Z,96211.00
2024-01-16T23:30:19.149Z,96209.00
2024-01-16T23:32:46.695Z,96198.00
2024-01-16T23:35:14.025Z,96216.00
2024-01-16T23:37:42.393Z,96189.00
2024-01-16T23:40:10.622Z,96194.00
2024-01-16T23:42:39.574Z,96195.00
2024-01-16T23:45:14.516Z,96179.00
2024-01-16T23:47:51.007Z,96171.00
2024-01-16T23:50:18.194Z,96177.00
2024-01-16T23:52:45.872Z,96175.00
2024-01-16T23:55:13.070Z,96170.00
2024-01-16T23:57:40.545Z,96183.00
